createdAt,value
2023-03-20T00:00:36.955Z,8.5
2023-03-20T00:02:36.685Z,8.4
2023-03-20T00:04:36.808Z,8.4
2023-03-20T00:06:36.662Z,8.4
2023-03-20T00:08:36.709Z,8.3
2023-03-20T00:10:36.685Z,8.3
2023-03-20T00:12:36.653Z,8.2
2023-03-20T00:14:36.633Z,8.2
2023-03-20T00:16:36.653Z,8.2
2023-03-20T00:18:36.625Z,8.1
2023-03-20T00:20:36.794Z,8.1
2023-03-20T00:22:36.630Z,8
2023-03-20T00:24:36.656Z,8
2023-03-20T00:26:36.654Z,8.1
2023-03-20T00:28:36.604Z,8
2023-03-20T00:30:36.695Z,8
2023-03-20T00:32:36.664Z,7.9
2023-03-20T00:34:36.622Z,7.9
2023-03-20T00:36:36.613Z,7.9
2023-03-20T00:38:36.617Z,7.9
2023-03-20T00:40:36.645Z,7.8
2023-03-20T00:42:36.587Z,7.8
2023-03-20T00:44:36.625Z,7.7
2023-03-20T00:46:36.649Z,7.8
2023-03-20T00:48:36.585Z,7.7
2023-03-20T00:50:36.647Z,7.7
2023-03-20T00:52:36.589Z,7.6
2023-03-20T00:54:36.586Z,7.6
2023-03-20T00:56:36.599Z,7.6
2023-03-20T00:58:36.567Z,7.5
2023-03-20T01:00:36.634Z,7.5
2023-03-20T01:02:36.629Z,7.5
2023-03-20T01:04:36.606Z,7.4
2023-03-20T01:06:36.672Z,7.4
2023-03-20T01:08:36.583Z,7.4
2023-03-20T01:10:36.585Z,7.3
2023-03-20T01:12:38.069Z,7.3
2023-03-20T01:14:36.621Z,7.3
2023-03-20T01:16:36.604Z,7.3
2023-03-20T01:18:36.562Z,7.3
2023-03-20T01:20:36.563Z,7.2
2023-03-20T01:22:36.550Z,7.2
2023-03-20T01:24:38.181Z,7.1
2023-03-20T01:26:36.569Z,7.1
2023-03-20T01:28:36.536Z,7.1
2023-03-20T01:30:36.551Z,7.1
2023-03-20T01:32:36.564Z,7.1
2023-03-20T01:34:36.528Z,7
2023-03-20T01:36:36.531Z,7
2023-03-20T01:38:36.540Z,7
2023-03-20T01:40:36.558Z,6.9
2023-03-20T01:42:36.536Z,6.9
2023-03-20T01:44:36.585Z,6.8
2023-03-20T01:46:36.571Z,6.9
2023-03-20T01:48:36.540Z,6.8
2023-03-20T01:50:36.515Z,6.8
2023-03-20T01:52:36.511Z,6.7
2023-03-20T01:54:36.536Z,6.7
2023-03-20T01:56:36.527Z,6.7
2023-03-20T01:58:36.537Z,6.6
2023-03-20T02:00:36.487Z,6.6
2023-03-20T02:02:36.473Z,6.6
2023-03-20T02:04:36.534Z,6.5
2023-03-20T02:06:36.551Z,6.6
2023-03-20T02:08:36.487Z,6.5
2023-03-20T02:10:36.478Z,6.5
2023-03-20T02:12:36.496Z,6.4
2023-03-20T02:14:36.469Z,6.4
2023-03-20T02:16:36.515Z,6.4
2023-03-20T02:18:36.518Z,6.4
2023-03-20T02:20:36.522Z,6.3
2023-03-20T02:22:36.527Z,6.3
2023-03-20T02:24:36.452Z,6.3
2023-03-20T02:26:36.449Z,6.3
2023-03-20T02:28:36.452Z,6.2
2023-03-20T02:30:36.517Z,6.2
2023-03-20T02:32:36.469Z,6.2
2023-03-20T02:34:36.466Z,6.1
2023-03-20T02:36:36.488Z,6.2
2023-03-20T02:38:36.433Z,6.1
2023-03-20T02:40:36.432Z,6
2023-03-20T02:42:36.442Z,6
2023-03-20T02:44:36.579Z,5.9
2023-03-20T02:46:36.773Z,6
2023-03-20T02:48:36.486Z,5.9
2023-03-20T02:50:36.432Z,5.9
2023-03-20T02:52:36.426Z,5.8
2023-03-20T02:54:36.451Z,5.8
2023-03-20T02:56:36.410Z,5.8
2023-03-20T02:58:36.422Z,5.7
2023-03-20T03:00:36.427Z,5.7
2023-03-20T03:02:36.515Z,5.7
2023-03-20T03:04:36.420Z,5.7
2023-03-20T03:06:36.402Z,5.7
2023-03-20T03:08:36.412Z,5.7
2023-03-20T03:10:36.440Z,5.6
2023-03-20T03:12:36.397Z,5.6
2023-03-20T03:14:36.424Z,5.6
2023-03-20T03:16:36.423Z,5.6
2023-03-20T03:18:36.412Z,5.6
2023-03-20T03:20:36.407Z,5.5
2023-03-20T03:22:36.544Z,5.5
2023-03-20T03:24:41.095Z,5.5
2023-03-20T03:26:36.372Z,5.5
2023-03-20T03:28:36.377Z,5.5
2023-03-20T03:30:36.502Z,5.5
2023-03-20T03:32:36.539Z,5.4
2023-03-20T03:34:36.377Z,5.4
2023-03-20T03:36:36.362Z,5.4
2023-03-20T03:38:36.382Z,5.3
2023-03-20T03:40:36.369Z,5.3
2023-03-20T03:42:36.384Z,5.2
2023-03-20T03:44:36.372Z,5.2
2023-03-20T03:46:36.451Z,5.2
2023-03-20T03:48:36.344Z,5.2
2023-03-20T03:50:36.370Z,5.2
2023-03-20T03:52:36.346Z,5.2
2023-03-20T03:54:36.397Z,5.2
2023-03-20T03:56:36.350Z,5.3
2023-03-20T03:58:36.362Z,5.3
2023-03-20T04:00:36.341Z,5.3
2023-03-20T04:02:36.333Z,5.3
2023-03-20T04:04:36.427Z,5.3
2023-03-20T04:06:36.329Z,5.4
2023-03-20T04:08:36.363Z,5.4
2023-03-20T04:10:36.343Z,5.4
2023-03-20T04:12:36.403Z,5.4
2023-03-20T04:14:36.324Z,5.5
2023-03-20T04:16:36.385Z,5.5
2023-03-20T04:18:36.348Z,5.5
2023-03-20T04:20:36.304Z,5.5
2023-03-20T04:22:36.334Z,5.5
2023-03-20T04:24:36.332Z,5.5
2023-03-20T04:26:36.313Z,5.5
2023-03-20T04:28:36.314Z,5.5
2023-03-20T04:30:36.288Z,5.5
2023-03-20T04:32:36.338Z,5.5
2023-03-20T04:34:36.314Z,5.5
2023-03-20T04:36:36.325Z,5.6
2023-03-20T04:38:36.300Z,5.6
2023-03-20T04:40:36.280Z,5.6
2023-03-20T04:42:36.288Z,5.6
2023-03-20T04:44:36.272Z,5.6
2023-03-20T04:46:36.344Z,5.6
2023-03-20T04:48:36.288Z,5.6
2023-03-20T04:50:36.268Z,5.6
2023-03-20T04:52:36.286Z,5.5
2023-03-20T04:54:36.281Z,5.5
2023-03-20T04:56:36.294Z,5.5
2023-03-20T04:58:36.307Z,5.4
2023-03-20T05:00:36.430Z,5.4
2023-03-20T05:02:36.254Z,5.3
2023-03-20T05:04:36.294Z,5.3
2023-03-20T05:06:36.281Z,5.4
2023-03-20T05:08:36.270Z,5.3
2023-03-20T05:10:36.267Z,5.3
2023-03-20T05:12:36.323Z,5.2
2023-03-20T05:14:36.264Z,5.2
2023-03-20T05:16:36.321Z,5.3
2023-03-20T05:18:36.264Z,5.3
2023-03-20T05:20:36.279Z,5.3
2023-03-20T05:22:36.280Z,5.4
2023-03-20T05:24:36.262Z,5.3
2023-03-20T05:26:38.786Z,5.4
2023-03-20T05:28:36.254Z,5.3
2023-03-20T05:30:36.398Z,5.3
2023-03-20T05:32:36.275Z,5.3
2023-03-20T05:34:36.217Z,5.3
2023-03-20T05:36:36.218Z,5.4
2023-03-20T05:38:36.228Z,5.4
2023-03-20T05:40:36.218Z,5.4
2023-03-20T05:42:36.214Z,5.4
2023-03-20T05:44:36.197Z,5.4
2023-03-20T05:46:36.295Z,5.5
2023-03-20T05:48:36.184Z,5.5
2023-03-20T05:50:36.244Z,5.5
2023-03-20T05:52:36.303Z,5.5
2023-03-20T05:54:36.209Z,5.5
2023-03-20T05:56:36.230Z,5.6
2023-03-20T05:58:36.197Z,5.5
2023-03-20T06:00:36.195Z,5.5
2023-03-20T06:02:36.222Z,5.5
2023-03-20T06:04:36.179Z,5.5
2023-03-20T06:06:36.206Z,5.6
2023-03-20T06:08:36.159Z,5.6
2023-03-20T06:10:36.147Z,5.6
2023-03-20T06:12:36.177Z,5.6
2023-03-20T06:14:36.182Z,5.6
2023-03-20T06:16:36.176Z,5.6
2023-03-20T06:18:36.156Z,5.6
2023-03-20T06:20:36.199Z,5.6
2023-03-20T06:22:36.149Z,5.6
2023-03-20T06:24:36.149Z,5.6
2023-03-20T06:26:36.169Z,5.6
2023-03-20T06:28:36.129Z,5.6
2023-03-20T06:30:36.151Z,5.6
2023-03-20T06:32:36.225Z,5.6
2023-03-20T06:34:36.166Z,5.6
2023-03-20T06:36:36.117Z,5.7
2023-03-20T06:38:36.150Z,5.7
2023-03-20T06:40:36.148Z,5.7
2023-03-20T06:42:36.176Z,5.7
2023-03-20T06:44:36.137Z,5.7
2023-03-20T06:46:36.156Z,5.8
2023-03-20T06:48:36.104Z,5.7
2023-03-20T06:50:36.136Z,5.8
2023-03-20T06:52:36.148Z,5.8
2023-03-20T06:54:36.105Z,5.8
2023-03-20T06:56:36.115Z,5.8
2023-03-20T06:58:36.102Z,5.9
2023-03-20T07:00:36.117Z,5.8
2023-03-20T07:02:36.098Z,5.8
2023-03-20T07:04:36.234Z,5.8
2023-03-20T07:06:36.093Z,5.9
2023-03-20T07:08:36.090Z,5.8
2023-03-20T07:10:36.088Z,5.9
2023-03-20T07:12:36.129Z,5.8
2023-03-20T07:14:36.085Z,5.8
2023-03-20T07:16:36.131Z,5.9
2023-03-20T07:18:36.151Z,5.9
2023-03-20T07:20:36.084Z,5.8
2023-03-20T07:22:36.068Z,5.8
2023-03-20T07:24:36.071Z,5.8
2023-03-20T07:26:36.087Z,5.9
2023-03-20T07:28:36.078Z,5.8
2023-03-20T07:30:36.077Z,5.8
2023-03-20T07:32:37.775Z,5.8
2023-03-20T07:34:36.103Z,5.7
2023-03-20T07:36:36.105Z,5.8
2023-03-20T07:38:36.186Z,5.7
2023-03-20T07:40:36.091Z,5.7
2023-03-20T07:42:36.071Z,5.7
2023-03-20T07:44:36.063Z,5.7
2023-03-20T07:46:36.074Z,5.7
2023-03-20T07:48:36.033Z,5.7
2023-03-20T07:50:36.032Z,5.7
2023-03-20T07:52:36.044Z,5.6
2023-03-20T07:54:36.048Z,5.6
2023-03-20T07:56:36.053Z,5.6
2023-03-20T07:58:36.046Z,5.6
2023-03-20T08:00:36.050Z,5.5
2023-03-20T08:02:36.099Z,5.5
2023-03-20T08:04:36.016Z,5.5
2023-03-20T08:06:36.029Z,5.5
2023-03-20T08:08:36.034Z,5.5
2023-03-20T08:10:36.034Z,5.5
2023-03-20T08:12:36.012Z,5.4
2023-03-20T08:14:36.296Z,5.4
2023-03-20T08:16:36.048Z,5.4
2023-03-20T08:18:36.038Z,5.4
2023-03-20T08:20:36.042Z,5.4
2023-03-20T08:22:36.039Z,5.4
2023-03-20T08:24:36.023Z,5.3
2023-03-20T08:26:36.037Z,5.4
2023-03-20T08:28:46.911Z,5.3
2023-03-20T08:30:36.108Z,5.3
2023-03-20T08:32:36.015Z,5.3
2023-03-20T08:34:36.002Z,5.3
2023-03-20T08:36:36.010Z,5.3
2023-03-20T08:38:36.061Z,5.3
2023-03-20T08:40:35.971Z,5.3
2023-03-20T08:42:35.983Z,5.2
2023-03-20T08:44:35.987Z,5.2
2023-03-20T08:46:36.033Z,5.2
2023-03-20T08:48:35.970Z,5.1
2023-03-20T08:50:35.967Z,5.1
2023-03-20T08:52:36.015Z,5
2023-03-20T08:54:35.976Z,5
2023-03-20T08:56:35.947Z,5
2023-03-20T08:58:35.955Z,4.9
2023-03-20T09:00:35.971Z,4.8
2023-03-20T09:02:36.115Z,4.8
2023-03-20T09:04:35.943Z,4.8
2023-03-20T09:06:35.944Z,4.9
2023-03-20T09:08:35.952Z,4.8
2023-03-20T09:10:35.974Z,4.8
2023-03-20T09:12:35.947Z,4.8
2023-03-20T09:14:35.933Z,4.8
2023-03-20T09:16:35.995Z,4.8
2023-03-20T09:18:35.918Z,4.8
2023-03-20T09:20:36.179Z,4.7
2023-03-20T09:22:35.934Z,4.6
2023-03-20T09:24:35.901Z,4.5
2023-03-20T09:26:35.958Z,4.5
2023-03-20T09:28:35.904Z,4.5
2023-03-20T09:30:36.139Z,4.4
2023-03-20T09:32:35.920Z,4.4
2023-03-20T09:34:35.898Z,4.3
2023-03-20T09:36:35.894Z,4.4
2023-03-20T09:38:35.911Z,4.3
2023-03-20T09:40:36.064Z,4.3
2023-03-20T09:42:35.916Z,4.2
2023-03-20T09:44:35.908Z,4.1
2023-03-20T09:46:35.921Z,4.2
2023-03-20T09:48:35.949Z,4.2
2023-03-20T09:50:36.139Z,4.2
2023-03-20T09:52:35.897Z,4.2
2023-03-20T09:54:50.953Z,4.2
2023-03-20T09:56:35.898Z,4.2
2023-03-20T09:58:35.888Z,4.2
2023-03-20T10:00:36.158Z,4.1
2023-03-20T10:02:35.922Z,4.1
2023-03-20T10:04:35.880Z,4.1
2023-03-20T10:06:35.862Z,4.2
2023-03-20T10:08:35.847Z,4.1
2023-03-20T10:10:36.090Z,4
2023-03-20T10:12:35.858Z,4
2023-03-20T10:14:35.840Z,4
2023-03-20T10:16:35.958Z,4.1
2023-03-20T10:18:35.838Z,4
2023-03-20T10:20:36.207Z,4
2023-03-20T10:22:35.844Z,4
2023-03-20T10:24:35.829Z,4
2023-03-20T10:26:35.862Z,4
2023-03-20T10:28:35.810Z,4
2023-03-20T10:30:36.112Z,4
2023-03-20T10:32:35.916Z,4
2023-03-20T10:34:35.812Z,3.9
2023-03-20T10:36:35.812Z,4
2023-03-20T10:38:35.823Z,4
2023-03-20T10:40:36.043Z,4
2023-03-20T10:42:35.788Z,3.9
2023-03-20T10:44:35.800Z,4
2023-03-20T10:46:35.888Z,4
2023-03-20T10:48:35.809Z,4
2023-03-20T10:50:35.963Z,3.9
2023-03-20T10:52:35.836Z,3.9
2023-03-20T10:54:35.812Z,3.9
2023-03-20T10:56:35.799Z,4
2023-03-20T10:58:35.794Z,4
2023-03-20T11:00:36.000Z,4
2023-03-20T11:02:35.793Z,3.9
2023-03-20T11:04:35.826Z,3.9
2023-03-20T11:06:35.809Z,4
2023-03-20T11:08:35.753Z,4
2023-03-20T11:10:36.009Z,4
2023-03-20T11:12:35.804Z,4
2023-03-20T11:14:36.559Z,4
2023-03-20T11:16:35.883Z,4.1
2023-03-20T11:18:35.761Z,4
2023-03-20T11:20:36.110Z,4
2023-03-20T11:22:35.847Z,4
2023-03-20T11:24:35.789Z,4
2023-03-20T11:26:35.912Z,4.1
2023-03-20T11:28:35.740Z,4
2023-03-20T11:30:35.982Z,4
2023-03-20T11:32:35.876Z,4
2023-03-20T11:34:35.764Z,4
2023-03-20T11:36:35.761Z,4.1
2023-03-20T11:38:35.771Z,4.1
2023-03-20T11:40:35.961Z,4.1
2023-03-20T11:42:35.745Z,4.1
2023-03-20T11:44:35.792Z,4.1
2023-03-20T11:46:35.732Z,4.2
2023-03-20T11:48:35.759Z,4.2
2023-03-20T11:50:36.020Z,4.2
2023-03-20T11:52:35.760Z,4.2
2023-03-20T11:54:35.748Z,4.2
2023-03-20T11:56:35.728Z,4.3
2023-03-20T11:58:35.723Z,4.3
2023-03-20T12:00:36.062Z,4.3
2023-03-20T12:02:35.811Z,4.3
2023-03-20T12:04:35.696Z,4.3
2023-03-20T12:06:35.736Z,4.4
2023-03-20T12:08:35.721Z,4.5
2023-03-20T12:10:35.892Z,4.5
2023-03-20T12:12:35.712Z,4.5
2023-03-20T12:14:35.712Z,4.5
2023-03-20T12:16:35.695Z,4.6
2023-03-20T12:18:35.701Z,4.6
2023-03-20T12:20:35.926Z,4.6
2023-03-20T12:22:35.701Z,4.7
2023-03-20T12:24:35.708Z,4.7
2023-03-20T12:26:35.758Z,4.9
2023-03-20T12:28:35.684Z,4.9
2023-03-20T12:30:35.847Z,5.1
2023-03-20T12:32:35.794Z,5.2
2023-03-20T12:34:35.706Z,5.2
2023-03-20T12:36:35.712Z,5.3
2023-03-20T12:38:35.691Z,5.5
2023-03-20T12:40:35.858Z,5.5
2023-03-20T12:42:35.660Z,5.5
2023-03-20T12:44:35.664Z,5.6
2023-03-20T12:46:35.705Z,5.8
2023-03-20T12:48:35.727Z,5.9
2023-03-20T12:50:35.988Z,6
2023-03-20T12:52:35.637Z,6
2023-03-20T12:54:35.654Z,6.1
2023-03-20T12:56:35.660Z,6.3
2023-03-20T12:58:35.622Z,6.4
2023-03-20T13:00:35.970Z,6.5
2023-03-20T13:02:35.761Z,6.7
2023-03-20T13:04:35.651Z,6.7
2023-03-20T13:06:35.626Z,6.9
2023-03-20T13:08:35.650Z,6.9
2023-03-20T13:10:35.878Z,6.9
2023-03-20T13:12:35.632Z,7
2023-03-20T13:14:35.665Z,7.1
2023-03-20T13:16:35.699Z,7.3
2023-03-20T13:18:35.617Z,7.4
2023-03-20T13:20:35.871Z,7.5
2023-03-20T13:22:35.600Z,7.6
2023-03-20T13:24:35.654Z,7.6
2023-03-20T13:26:35.612Z,7.7
2023-03-20T13:28:35.624Z,7.6
2023-03-20T13:30:35.881Z,7.7
2023-03-20T13:32:35.683Z,7.8
2023-03-20T13:34:35.621Z,7.9
2023-03-20T13:36:35.623Z,8
2023-03-20T13:38:35.586Z,8.1
2023-03-20T13:40:35.900Z,8.2
2023-03-20T13:42:35.597Z,8.2
2023-03-20T13:44:35.572Z,8.4
2023-03-20T13:46:35.637Z,8.8
2023-03-20T13:48:35.585Z,8.7
2023-03-20T13:50:35.892Z,8.7
2023-03-20T13:52:35.575Z,8.7
2023-03-20T13:54:35.577Z,8.7
2023-03-20T13:56:35.630Z,9.1
2023-03-20T13:58:35.546Z,8.9
2023-03-20T14:00:35.931Z,9
2023-03-20T14:02:35.558Z,9.1
2023-03-20T14:04:35.674Z,9.1
2023-03-20T14:06:35.594Z,9.2
2023-03-20T14:08:35.576Z,9.2
2023-03-20T14:10:35.821Z,9.1
2023-03-20T14:12:35.566Z,9.4
2023-03-20T14:14:35.556Z,9.4
2023-03-20T14:16:35.551Z,9.6
2023-03-20T14:18:35.565Z,9.6
2023-03-20T14:20:35.903Z,9.7
2023-03-20T14:22:35.526Z,9.7
2023-03-20T14:24:35.527Z,9.8
2023-03-20T14:26:35.598Z,10
2023-03-20T14:28:35.590Z,10
2023-03-20T14:30:35.750Z,9.8
2023-03-20T14:32:35.579Z,10
2023-03-20T14:34:36.958Z,10.2
2023-03-20T14:36:35.555Z,10
2023-03-20T14:38:35.489Z,10.2
2023-03-20T14:40:35.874Z,10.1
2023-03-20T14:42:35.544Z,10.1
2023-03-20T14:44:35.473Z,10.2
2023-03-20T14:46:35.526Z,10.3
2023-03-20T14:48:35.507Z,10.2
2023-03-20T14:50:35.859Z,10.3
2023-03-20T14:52:35.514Z,10.5
2023-03-20T14:54:35.481Z,10.4
2023-03-20T14:56:35.568Z,10.6
2023-03-20T14:58:35.483Z,10.8
2023-03-20T15:00:35.698Z,10.8
2023-03-20T15:02:35.467Z,10.8
2023-03-20T15:04:35.495Z,10.6
2023-03-20T15:06:35.610Z,10.7
2023-03-20T15:08:35.465Z,10.9
2023-03-20T15:10:35.692Z,10.8
2023-03-20T15:12:35.463Z,10.7
2023-03-20T15:14:35.463Z,10.9
2023-03-20T15:16:35.556Z,11.1
2023-03-20T15:18:35.452Z,11.1
2023-03-20T15:20:35.710Z,11.1
2023-03-20T15:22:35.475Z,11.2
2023-03-20T15:24:35.436Z,11.1
2023-03-20T15:26:35.634Z,11.5
2023-03-20T15:28:35.477Z,11.4
2023-03-20T15:30:35.651Z,11.4
2023-03-20T15:32:35.458Z,11.6
2023-03-20T15:34:35.421Z,11.5
2023-03-20T15:36:35.454Z,11.6
2023-03-20T15:38:35.447Z,11.7
2023-03-20T15:40:49.542Z,11.9
2023-03-20T15:42:35.510Z,11.7
2023-03-20T15:44:35.459Z,11.9
2023-03-20T15:46:35.408Z,11.9
2023-03-20T15:48:35.427Z,12
2023-03-20T15:50:35.689Z,11.9
2023-03-20T15:52:35.480Z,11.7
2023-03-20T15:54:35.414Z,11.7
2023-03-20T15:56:35.402Z,11.9
2023-03-20T15:58:35.408Z,12
2023-03-20T16:00:35.677Z,12
2023-03-20T16:02:35.414Z,12
2023-03-20T16:04:35.431Z,11.9
2023-03-20T16:06:35.377Z,11.8
2023-03-20T16:08:35.385Z,12
2023-03-20T16:10:35.837Z,12.1
2023-03-20T16:12:35.443Z,12.2
2023-03-20T16:14:35.494Z,12.1
2023-03-20T16:16:35.377Z,12.1
2023-03-20T16:18:35.402Z,12
2023-03-20T16:20:35.621Z,12.2
2023-03-20T16:22:35.385Z,12.3
2023-03-20T16:24:35.425Z,12.4
2023-03-20T16:26:35.427Z,12.5
2023-03-20T16:28:35.360Z,12.3
2023-03-20T16:30:35.564Z,12.6
2023-03-20T16:32:35.444Z,12.3
2023-03-20T16:34:35.367Z,12.4
2023-03-20T16:36:35.377Z,12.5
2023-03-20T16:38:35.340Z,12.5
2023-03-20T16:40:35.638Z,12.3
2023-03-20T16:42:35.351Z,12.2
2023-03-20T16:44:35.365Z,12.3
2023-03-20T16:46:35.440Z,12.5
2023-03-20T16:48:35.344Z,12.6
2023-03-20T16:50:35.593Z,12.7
2023-03-20T16:52:35.326Z,12.5
2023-03-20T16:54:35.346Z,12.5
2023-03-20T16:56:35.351Z,12.6
2023-03-20T16:58:35.330Z,12.5
2023-03-20T17:00:35.645Z,12.4
2023-03-20T17:02:35.337Z,12.7
2023-03-20T17:04:35.402Z,12.7
2023-03-20T17:06:35.312Z,12.6
2023-03-20T17:08:35.308Z,12.8
2023-03-20T17:10:35.593Z,12.8
2023-03-20T17:12:35.397Z,13
2023-03-20T17:14:35.369Z,12.6
2023-03-20T17:16:35.335Z,12.7
2023-03-20T17:18:35.344Z,12.8
2023-03-20T17:20:35.808Z,12.6
2023-03-20T17:22:35.277Z,12.7
2023-03-20T17:24:35.293Z,12.5
2023-03-20T17:26:35.275Z,12.4
2023-03-20T17:28:35.386Z,12.7
2023-03-20T17:30:35.648Z,13.1
2023-03-20T17:32:35.352Z,12.8
2023-03-20T17:34:35.286Z,12.9
2023-03-20T17:36:35.319Z,12.9
2023-03-20T17:38:35.280Z,13.2
2023-03-20T17:40:35.536Z,12.8
2023-03-20T17:42:35.303Z,12.9
2023-03-20T17:44:35.294Z,13
2023-03-20T17:46:46.203Z,12.9
2023-03-20T17:48:35.260Z,13
2023-03-20T17:50:35.403Z,13.2
2023-03-20T17:52:35.286Z,13.1
2023-03-20T17:54:35.263Z,13
2023-03-20T17:56:35.298Z,13.3
2023-03-20T17:58:35.228Z,13.2
2023-03-20T18:00:35.472Z,13.1
2023-03-20T18:02:35.255Z,13.3
2023-03-20T18:04:35.269Z,13.1
2023-03-20T18:06:35.234Z,13
2023-03-20T18:08:35.239Z,12.8
2023-03-20T18:10:35.860Z,13
2023-03-20T18:12:35.271Z,12.8
2023-03-20T18:14:35.232Z,12.9
2023-03-20T18:16:35.208Z,12.9
2023-03-20T18:18:35.242Z,12.9
2023-03-20T18:20:35.461Z,13.3
2023-03-20T18:22:35.223Z,13.2
2023-03-20T18:24:35.223Z,13.1
2023-03-20T18:26:35.220Z,13.2
2023-03-20T18:28:35.216Z,13.2
2023-03-20T18:30:35.447Z,13.2
2023-03-20T18:32:35.230Z,13.2
2023-03-20T18:34:35.217Z,13.3
2023-03-20T18:36:35.203Z,13.3
2023-03-20T18:38:35.253Z,13.2
2023-03-20T18:40:35.567Z,13.3
2023-03-20T18:42:35.196Z,13.5
2023-03-20T18:44:35.178Z,13.4
2023-03-20T18:46:35.220Z,13.4
2023-03-20T18:48:35.198Z,13.5
2023-03-20T18:50:37.296Z,13.4
2023-03-20T18:52:35.221Z,13.3
2023-03-20T18:54:35.187Z,13.1
2023-03-20T18:56:35.171Z,13.1
2023-03-20T18:58:35.218Z,13.3
2023-03-20T19:00:35.388Z,13.5
2023-03-20T19:02:35.193Z,13.3
2023-03-20T19:04:35.178Z,13.3
2023-03-20T19:06:35.160Z,13.4
2023-03-20T19:08:35.211Z,13.4
2023-03-20T19:10:35.314Z,13.4
2023-03-20T19:12:35.149Z,13.4
2023-03-20T19:14:36.118Z,13.5
2023-03-20T19:16:35.279Z,13.5
2023-03-20T19:18:36.436Z,13.4
2023-03-20T19:20:35.458Z,13.6
2023-03-20T19:22:35.147Z,13.8
2023-03-20T19:24:35.137Z,13.6
2023-03-20T19:26:35.197Z,13.7
2023-03-20T19:28:40.199Z,13.7
2023-03-20T19:30:35.411Z,13.6
2023-03-20T19:32:35.152Z,13.8
2023-03-20T19:36:35.232Z,13.6
2023-03-20T19:38:35.165Z,13.5
2023-03-20T19:40:35.230Z,13.6
2023-03-20T19:43:00.043Z,13.3
2023-03-20T19:44:35.113Z,13.3
2023-03-20T19:46:39.959Z,13.4
2023-03-20T19:48:49.963Z,13.5
2023-03-20T19:50:35.136Z,13.3
2023-03-20T19:52:35.135Z,13.3
2023-03-20T19:54:35.112Z,13.7
2023-03-20T19:56:35.099Z,14
2023-03-20T19:58:35.140Z,14.2
2023-03-20T20:00:57.937Z,14.3
2023-03-20T20:02:35.283Z,14.3
2023-03-20T20:04:35.090Z,14.4
2023-03-20T20:06:35.103Z,14.4
2023-03-20T20:08:46.775Z,14.3
2023-03-20T20:10:35.389Z,14.2
2023-03-20T20:12:35.104Z,14.3
2023-03-20T20:14:35.330Z,14.4
2023-03-20T20:16:35.284Z,14.6
2023-03-20T20:18:35.089Z,14.4
2023-03-20T20:20:35.259Z,14.6
2023-03-20T20:22:35.084Z,14.6
2023-03-20T20:24:35.062Z,14.8
2023-03-20T20:26:40.438Z,14.9
2023-03-20T20:28:35.087Z,15
2023-03-20T20:30:35.495Z,15.2
2023-03-20T20:32:35.788Z,14.9
2023-03-20T20:37:21.001Z,14.7
2023-03-20T20:38:50.340Z,14.8
2023-03-20T20:40:35.040Z,14.7
2023-03-20T20:42:35.088Z,14.6
2023-03-20T20:44:35.050Z,14.6
2023-03-20T20:46:35.041Z,14.8
2023-03-20T20:48:35.058Z,14.6
2023-03-20T20:50:35.076Z,14.7
2023-03-20T20:52:35.042Z,14.7
2023-03-20T20:54:35.060Z,14.5
2023-03-20T20:56:35.029Z,14.5
2023-03-20T20:58:35.032Z,14.3
2023-03-20T21:00:48.876Z,14.3
2023-03-20T21:02:35.022Z,14.1
2023-03-20T21:04:35.081Z,14
2023-03-20T21:07:03.716Z,14.1
2023-03-20T21:08:35.078Z,14.1
2023-03-20T21:10:35.032Z,13.9
2023-03-20T21:12:40.295Z,13.8
2023-03-20T21:14:35.025Z,13.6
2023-03-20T21:16:35.051Z,13.7
2023-03-20T21:18:35.002Z,13.6
2023-03-20T21:20:34.999Z,13.5
2023-03-20T21:22:35.011Z,13.5
2023-03-20T21:24:35.217Z,13.5
2023-03-20T21:26:34.990Z,13.6
2023-03-20T21:28:34.968Z,13.7
2023-03-20T21:30:35.041Z,13.5
2023-03-20T21:32:35.068Z,13.3
2023-03-20T21:34:35.008Z,13.3
2023-03-20T21:36:35.226Z,13.2
2023-03-20T21:39:05.713Z,13.2
2023-03-20T21:40:34.995Z,13.1
2023-03-20T21:42:34.983Z,13
2023-03-20T21:45:13.212Z,13
2023-03-20T21:49:31.691Z,13
2023-03-20T21:51:03.467Z,13
2023-03-20T21:55:21.546Z,12.9
2023-03-20T21:57:10.473Z,12.9
2023-03-20T22:02:36.082Z,12.7
2023-03-20T22:05:22.077Z,12.7
2023-03-20T22:21:29.912Z,12.5
2023-03-20T22:23:21.206Z,12.4
2023-03-20T22:25:16.537Z,12.4
2023-03-20T22:27:40.415Z,12.2
2023-03-20T22:29:21.145Z,12.2
2023-03-20T22:31:26.498Z,12.2
2023-03-20T22:33:11.501Z,12.2
2023-03-20T22:35:31.306Z,12.1
2023-03-20T22:39:10.691Z,12
2023-03-20T22:43:05.795Z,11.7
2023-03-20T22:44:58.804Z,11.6
2023-03-20T22:46:45.125Z,11.5
2023-03-20T22:48:34.962Z,11.5
2023-03-20T22:50:35.025Z,11.4
2023-03-20T22:52:47.937Z,11.4
2023-03-20T22:54:34.876Z,11.3
2023-03-20T22:56:34.925Z,11.2
2023-03-20T22:58:34.894Z,11.2
2023-03-20T23:00:36.560Z,11.1
2023-03-20T23:02:34.894Z,11.1
2023-03-20T23:04:36.462Z,11
2023-03-20T23:06:34.920Z,10.9
2023-03-20T23:08:39.258Z,10.9
2023-03-20T23:10:35.111Z,10.8
2023-03-20T23:12:34.888Z,10.7
2023-03-20T23:14:45.280Z,10.6
2023-03-20T23:16:34.880Z,10.5
2023-03-20T23:18:34.857Z,10.4
2023-03-20T23:20:35.125Z,10.4
2023-03-20T23:22:34.846Z,10.3
2023-03-20T23:24:34.866Z,10.2
2023-03-20T23:26:34.865Z,10.1
2023-03-20T23:28:34.853Z,10.1
2023-03-20T23:30:44.127Z,10
2023-03-20T23:32:34.848Z,9.9
2023-03-20T23:34:34.860Z,9.9
2023-03-20T23:36:37.082Z,9.8
2023-03-20T23:38:34.846Z,9.7
2023-03-20T23:40:35.177Z,9.7
2023-03-20T23:42:34.851Z,9.6
2023-03-20T23:44:34.990Z,9.5
2023-03-20T23:46:34.826Z,9.4
2023-03-20T23:48:34.916Z,9.4
2023-03-20T23:50:49.848Z,9.3
2023-03-20T23:52:35.132Z,9.2
2023-03-20T23:54:34.847Z,9.2
2023-03-20T23:56:34.803Z,9.1
2023-03-20T23:58:36.055Z,9.1
